Time;durP1;ratioP1;P1;durP2;ratioP2;P2;SDS_P1;SDS_P2;PMS_P1;PMS_P2;Temp;Humidity;BMP_temperature;BMP_pressure;BME280_temperature;BME280_humidity;BME280_pressure;Samples;Min_cycle;Max_cycle;Signal;HPM_P1;HPM_P2
2023/09/05 00:00:16;;;;;;;2.38;1.65;;;20.90;99.90;;;;;;5086926;28;20051;-34
2023/09/05 00:02:44;;;;;;;2.17;1.70;;;20.90;99.90;;;;;;5087875;28;20602;-37
2023/09/05 00:05:11;;;;;;;2.00;1.70;;;20.90;99.90;;;;;;5086222;28;20024;-35
2023/09/05 00:07:39;;;;;;;1.92;1.77;;;20.90;99.90;;;;;;5087488;28;20028;-36
2023/09/05 00:10:13;;;;;;;1.58;1.48;;;20.90;99.90;;;;;;5087032;28;20020;-36
2023/09/05 00:12:43;;;;;;;1.60;1.50;;;20.90;99.90;;;;;;5087628;28;20024;-36
2023/09/05 00:15:13;;;;;;;1.42;1.33;;;20.90;99.90;;;;;;5086005;28;20024;-36
2023/09/05 00:17:40;;;;;;;1.95;1.63;;;21.00;99.90;;;;;;5087670;28;20253;-42
2023/09/05 00:20:07;;;;;;;1.90;1.60;;;21.00;99.90;;;;;;5087238;28;20072;-36
2023/09/05 00:22:33;;;;;;;2.15;1.85;;;21.00;99.90;;;;;;5085168;28;20031;-36
2023/09/05 00:24:59;;;;;;;1.98;1.70;;;20.90;99.90;;;;;;5087041;28;20035;-36
2023/09/05 00:27:25;;;;;;;2.35;1.65;;;20.90;99.90;;;;;;5086774;28;20024;-35
2023/09/05 00:29:57;;;;;;;1.92;1.60;;;20.90;99.90;;;;;;5086357;28;20040;-34
2023/09/05 00:32:22;;;;;;;1.80;1.70;;;20.90;99.90;;;;;;5087038;28;20093;-36
2023/09/05 00:34:48;;;;;;;1.73;1.63;;;20.90;99.90;;;;;;5086215;28;20032;-35
2023/09/05 00:37:21;;;;;;;1.55;1.42;;;20.80;99.90;;;;;;5086127;28;20020;-35
2023/09/05 00:39:47;;;;;;;3.05;1.95;;;20.80;99.90;;;;;;5087468;28;20035;-36
2023/09/05 00:42:14;;;;;;;2.15;1.75;;;20.80;99.90;;;;;;5085007;28;20492;-37
2023/09/05 00:44:41;;;;;;;2.40;1.70;;;20.80;99.90;;;;;;5086841;28;20032;-36
2023/09/05 00:47:07;;;;;;;2.30;2.00;;;20.80;99.90;;;;;;5085324;28;20120;-36
2023/09/05 00:49:39;;;;;;;1.92;1.80;;;20.70;99.90;;;;;;5086013;28;20107;-36
2023/09/05 00:52:06;;;;;;;2.10;1.90;;;20.60;99.90;;;;;;5086580;28;20103;-36
2023/09/05 00:54:32;;;;;;;2.42;2.00;;;20.50;99.90;;;;;;5086721;28;20419;-35
2023/09/05 00:57:01;;;;;;;2.03;1.83;;;20.50;99.90;;;;;;5085996;28;20333;-37
2023/09/05 00:59:26;;;;;;;3.05;2.10;;;20.40;99.90;;;;;;5086529;28;20779;-36
2023/09/05 01:01:54;;;;;;;3.65;2.05;;;20.30;99.90;;;;;;5087244;28;20024;-35
2023/09/05 01:04:20;;;;;;;2.47;2.08;;;20.30;99.90;;;;;;5085462;28;20044;-35
2023/09/05 01:06:58;;;;;;;2.97;2.30;;;20.30;99.90;;;;;;5085962;28;20051;-36
2023/09/05 01:10:04;;;;;;;2.35;2.10;;;20.20;99.90;;;;;;5083799;28;20017;-36
2023/09/05 01:12:30;;;;;;;1.98;1.85;;;20.20;99.90;;;;;;5086410;28;20023;-34
2023/09/05 01:14:56;;;;;;;3.53;2.30;;;20.10;99.90;;;;;;5086631;28;20028;-35
2023/09/05 01:17:21;;;;;;;2.83;2.30;;;20.00;99.90;;;;;;5084862;28;20497;-34
2023/09/05 01:19:50;;;;;;;2.53;2.28;;;20.00;99.90;;;;;;5086087;28;20685;-35
2023/09/05 01:22:24;;;;;;;2.40;2.20;;;19.90;99.90;;;;;;5085453;28;20020;-35
2023/09/05 01:24:50;;;;;;;3.15;2.08;;;19.80;99.90;;;;;;5082362;28;20028;-35
2023/09/05 01:27:22;;;;;;;3.35;2.70;;;19.80;99.90;;;;;;5085814;28;20052;-36
2023/09/05 01:29:49;;;;;;;2.35;2.15;;;19.70;99.90;;;;;;5086744;28;20107;-36
2023/09/05 01:32:20;;;;;;;4.28;2.15;;;19.70;99.90;;;;;;5084884;28;20028;-36
2023/09/05 01:34:45;;;;;;;4.10;2.00;;;19.70;99.90;;;;;;5086230;28;20044;-35
2023/09/05 01:37:15;;;;;;;2.38;2.10;;;19.60;99.90;;;;;;5086124;28;20020;-35
2023/09/05 01:39:42;;;;;;;2.53;2.33;;;19.60;99.90;;;;;;5085951;28;20082;-35
2023/09/05 01:42:07;;;;;;;2.45;2.17;;;19.60;99.90;;;;;;5065420;28;20027;-35
2023/09/05 01:44:34;;;;;;;2.30;2.10;;;19.60;99.90;;;;;;5079943;28;20032;-35
2023/09/05 01:47:00;;;;;;;2.67;2.13;;;19.60;99.90;;;;;;5084651;28;20047;-35
2023/09/05 01:49:26;;;;;;;2.53;2.10;;;19.60;99.90;;;;;;5085547;28;20063;-36
2023/09/05 01:51:52;;;;;;;2.33;2.13;;;19.60;99.90;;;;;;5085335;28;20078;-35
2023/09/05 01:54:17;;;;;;;2.00;1.90;;;19.60;99.90;;;;;;5083767;28;20051;-36
2023/09/05 01:56:43;;;;;;;2.53;2.13;;;19.60;99.90;;;;;;5085963;28;20016;-36
2023/09/05 01:59:08;;;;;;;2.97;2.00;;;19.60;99.90;;;;;;5084044;28;20024;-34
2023/09/05 02:01:34;;;;;;;2.42;2.20;;;19.60;99.90;;;;;;5085598;28;20386;-35
2023/09/05 02:04:00;;;;;;;2.17;1.98;;;19.60;99.90;;;;;;5085033;28;20042;-35
2023/09/05 02:06:26;;;;;;;2.35;1.90;;;19.50;99.90;;;;;;5084846;28;20131;-35
2023/09/05 02:08:52;;;;;;;2.63;2.00;;;19.50;99.90;;;;;;5085236;28;20126;-35
2023/09/05 02:11:17;;;;;;;2.63;2.13;;;19.60;99.90;;;;;;5084786;28;20026;-36
2023/09/05 02:13:43;;;;;;;2.35;2.15;;;19.50;99.90;;;;;;5086302;28;20044;-35
2023/09/05 02:16:08;;;;;;;2.30;2.10;;;19.50;99.90;;;;;;5085459;28;20154;-35
2023/09/05 02:18:34;;;;;;;2.40;2.10;;;19.50;99.90;;;;;;5085188;28;20050;-34
2023/09/05 02:21:02;;;;;;;3.60;2.10;;;19.50;99.90;;;;;;5083688;28;20024;-36
2023/09/05 02:23:28;;;;;;;2.22;2.03;;;19.50;99.90;;;;;;5085167;28;20034;-36
2023/09/05 02:25:58;;;;;;;4.80;2.05;;;19.50;99.90;;;;;;5084852;28;20371;-36
2023/09/05 02:28:25;;;;;;;2.25;1.92;;;19.50;99.90;;;;;;5084327;28;20502;-36
2023/09/05 02:30:50;;;;;;;2.30;1.90;;;19.50;99.90;;;;;;5085228;28;20031;-36
2023/09/05 02:33:16;;;;;;;1.92;1.73;;;19.50;99.90;;;;;;5083870;28;20024;-36
2023/09/05 02:35:42;;;;;;;2.33;2.10;;;19.50;99.90;;;;;;5084516;28;20039;-35
2023/09/05 02:38:08;;;;;;;2.28;1.85;;;19.50;99.90;;;;;;5084236;28;20024;-37
2023/09/05 02:40:34;;;;;;;1.90;1.70;;;19.50;99.90;;;;;;5084888;28;20040;-34
2023/09/05 02:43:00;;;;;;;3.97;2.08;;;19.50;99.90;;;;;;5083975;28;20385;-36
2023/09/05 02:45:26;;;;;;;1.92;1.75;;;19.50;99.90;;;;;;5084239;28;20112;-35
2023/09/05 02:47:52;;;;;;;2.78;2.10;;;19.50;99.90;;;;;;5084847;28;20024;-35
2023/09/05 02:50:18;;;;;;;2.70;2.10;;;19.50;99.90;;;;;;5084239;28;20047;-36
2023/09/05 02:52:43;;;;;;;1.95;1.80;;;19.50;99.90;;;;;;5084846;28;20103;-35
2023/09/05 02:55:09;;;;;;;2.33;1.83;;;19.50;99.90;;;;;;5084558;28;20122;-36
2023/09/05 02:57:34;;;;;;;3.85;1.90;;;19.50;99.90;;;;;;5084211;28;20028;-34
2023/09/05 03:00:00;;;;;;;2.70;1.75;;;19.50;99.90;;;;;;5084595;28;20563;-35
2023/09/05 03:02:26;;;;;;;2.92;1.60;;;19.50;99.90;;;;;;5083955;28;20031;-36
2023/09/05 03:04:53;;;;;;;2.20;2.00;;;19.50;99.90;;;;;;5085467;28;20017;-35
2023/09/05 03:07:20;;;;;;;2.10;1.90;;;19.50;99.90;;;;;;5084495;28;20115;-36
2023/09/05 03:09:49;;;;;;;2.67;2.17;;;19.50;99.90;;;;;;5085080;28;20036;-36
2023/09/05 03:12:15;;;;;;;2.40;2.17;;;19.40;99.90;;;;;;5088430;28;20048;-36
2023/09/05 03:14:40;;;;;;;2.17;1.98;;;19.40;99.90;;;;;;5088671;28;20075;-33
2023/09/05 03:17:09;;;;;;;1.80;1.70;;;19.40;99.90;;;;;;5088003;28;20111;-35
2023/09/05 03:19:36;;;;;;;2.28;1.98;;;19.40;99.90;;;;;;5088581;28;20035;-34
2023/09/05 03:22:01;;;;;;;3.45;2.35;;;19.40;99.90;;;;;;5087602;28;20020;-35
2023/09/05 03:24:28;;;;;;;3.20;2.13;;;19.40;99.90;;;;;;5087870;28;20462;-35
2023/09/05 03:26:54;;;;;;;2.22;2.03;;;19.40;99.90;;;;;;5087936;28;20495;-35
2023/09/05 03:29:19;;;;;;;2.70;2.17;;;19.30;99.90;;;;;;5088078;28;20028;-35
2023/09/05 03:31:45;;;;;;;2.22;2.03;;;19.40;99.90;;;;;;5087545;28;20120;-36
2023/09/05 03:34:11;;;;;;;2.60;2.08;;;19.30;99.90;;;;;;5087565;28;20040;-36
2023/09/05 03:36:39;;;;;;;2.42;2.22;;;19.30;99.90;;;;;;5089042;28;20035;-35
2023/09/05 03:39:04;;;;;;;3.65;2.33;;;19.30;99.90;;;;;;5087026;28;20023;-34
2023/09/05 03:41:30;;;;;;;2.88;2.00;;;19.20;99.90;;;;;;5088535;28;20040;-37
2023/09/05 03:43:56;;;;;;;2.55;2.35;;;19.20;99.90;;;;;;5088557;28;20077;-35
2023/09/05 03:46:22;;;;;;;2.50;2.00;;;19.20;99.90;;;;;;5087207;28;20077;-34
2023/09/05 03:48:52;;;;;;;2.45;2.17;;;19.20;99.90;;;;;;5087920;28;20073;-36
2023/09/05 03:51:18;;;;;;;3.00;2.40;;;19.10;99.90;;;;;;5087851;28;20020;-35
2023/09/05 03:53:44;;;;;;;2.40;2.15;;;19.10;99.90;;;;;;5087234;28;20028;-34
2023/09/05 03:56:10;;;;;;;3.65;2.25;;;19.10;99.90;;;;;;5087719;28;20032;-34
2023/09/05 03:58:37;;;;;;;3.33;2.63;;;19.10;99.90;;;;;;5087359;28;20024;-35
2023/09/05 04:01:04;;;;;;;2.72;2.45;;;19.10;99.90;;;;;;5086468;28;20063;-35
2023/09/05 04:03:33;;;;;;;2.90;2.20;;;19.10;99.90;;;;;;5088214;28;20051;-36
2023/09/05 04:06:02;;;;;;;2.55;2.35;;;19.00;99.90;;;;;;5087414;28;20270;-36
2023/09/05 04:08:27;;;;;;;4.00;2.70;;;19.00;99.90;;;;;;5087447;28;20136;-35
2023/09/05 04:11:00;;;;;;;3.00;2.70;;;19.00;99.90;;;;;;5087877;28;20494;-36
2023/09/05 04:13:27;;;;;;;3.08;2.78;;;19.00;99.90;;;;;;5087577;28;20622;-35
2023/09/05 04:15:53;;;;;;;3.63;3.15;;;19.00;99.90;;;;;;5087803;28;20081;-34
2023/09/05 04:18:21;;;;;;;2.80;2.47;;;19.00;99.90;;;;;;5087546;28;20024;-35
2023/09/05 04:20:47;;;;;;;2.90;2.53;;;18.90;99.90;;;;;;5086734;28;20139;-34
2023/09/05 04:23:12;;;;;;;3.95;2.70;;;18.90;99.90;;;;;;5086762;28;20119;-36
2023/09/05 04:25:40;;;;;;;3.25;2.70;;;18.90;99.90;;;;;;5087079;28;20024;-35
2023/09/05 04:28:09;;;;;;;4.35;2.83;;;18.90;99.90;;;;;;5085883;28;20031;-36
2023/09/05 04:30:35;;;;;;;2.83;2.50;;;18.90;99.90;;;;;;5086634;28;20036;-36
2023/09/05 04:33:03;;;;;;;3.47;2.60;;;18.90;99.90;;;;;;5086357;28;20028;-35
2023/09/05 04:35:29;;;;;;;3.20;2.75;;;18.90;99.90;;;;;;5085882;28;20028;-35
2023/09/05 04:37:55;;;;;;;2.97;2.67;;;18.90;99.90;;;;;;5087267;28;20541;-36
2023/09/05 04:40:21;;;;;;;3.25;2.88;;;18.90;99.90;;;;;;5085866;28;20540;-35
2023/09/05 04:42:47;;;;;;;3.35;2.80;;;18.90;99.90;;;;;;5086396;28;20085;-35
2023/09/05 04:45:12;;;;;;;2.88;2.67;;;18.90;99.90;;;;;;5086595;28;20032;-35
2023/09/05 04:47:41;;;;;;;3.20;2.90;;;18.80;99.90;;;;;;5087065;28;20496;-35
2023/09/05 04:50:12;;;;;;;4.50;3.10;;;18.80;99.90;;;;;;5085390;28;20035;-34
2023/09/05 04:52:40;;;;;;;3.00;2.70;;;18.80;99.90;;;;;;5087243;28;20016;-34
2023/09/05 04:55:06;;;;;;;3.13;2.60;;;18.80;99.90;;;;;;5085498;28;20565;-36
2023/09/05 04:57:32;;;;;;;4.22;2.58;;;18.80;99.90;;;;;;5086430;28;20099;-37
2023/09/05 04:59:59;;;;;;;3.05;2.75;;;18.80;99.90;;;;;;5086098;28;20105;-36
2023/09/05 05:02:25;;;;;;;3.65;2.85;;;18.80;99.90;;;;;;5085696;28;20505;-36
2023/09/05 05:04:51;;;;;;;4.50;3.13;;;18.80;99.90;;;;;;5086155;28;20800;-36
2023/09/05 05:07:16;;;;;;;2.65;2.45;;;18.80;99.90;;;;;;5086041;28;20028;-35
2023/09/05 05:09:42;;;;;;;3.55;2.75;;;18.80;99.90;;;;;;5086054;28;20025;-35
2023/09/05 05:12:09;;;;;;;3.20;2.90;;;18.80;99.90;;;;;;5085538;28;20114;-35
2023/09/05 05:14:35;;;;;;;2.40;2.20;;;18.80;99.90;;;;;;5086545;28;20032;-36
2023/09/05 05:17:02;;;;;;;3.53;2.58;;;18.80;99.90;;;;;;5086128;28;20024;-35
2023/09/05 05:19:27;;;;;;;3.13;2.72;;;18.80;99.90;;;;;;5086674;28;20063;-35
2023/09/05 05:21:56;;;;;;;4.28;2.70;;;18.80;99.90;;;;;;5086017;28;20059;-35
2023/09/05 05:24:22;;;;;;;3.67;2.50;;;18.80;99.90;;;;;;5086084;28;20035;-34
2023/09/05 05:26:48;;;;;;;2.88;2.38;;;18.80;99.90;;;;;;5086083;28;20024;-35
2023/09/05 05:29:17;;;;;;;2.38;2.17;;;18.90;99.90;;;;;;5085291;28;20584;-35
2023/09/05 05:31:43;;;;;;;2.50;2.30;;;18.90;99.90;;;;;;5085352;28;20383;-35
2023/09/05 05:34:09;;;;;;;3.30;3.00;;;18.90;99.90;;;;;;5084710;28;20452;-35
2023/09/05 05:36:37;;;;;;;2.40;2.20;;;18.90;99.90;;;;;;5085856;28;20024;-35
2023/09/05 05:39:03;;;;;;;2.95;2.65;;;18.90;99.90;;;;;;5084872;28;20028;-35
2023/09/05 05:41:29;;;;;;;2.88;2.58;;;18.90;99.90;;;;;;5085858;28;20077;-36
2023/09/05 05:43:55;;;;;;;2.65;2.40;;;18.90;99.90;;;;;;5085916;28;20501;-35
2023/09/05 05:46:21;;;;;;;3.22;2.50;;;18.90;99.90;;;;;;5084446;28;20697;-35
2023/09/05 05:48:47;;;;;;;3.50;2.42;;;19.00;99.90;;;;;;5085667;28;20035;-34
2023/09/05 05:51:14;;;;;;;2.35;2.15;;;18.90;99.90;;;;;;5084647;28;20024;-35
2023/09/05 05:53:41;;;;;;;2.60;2.30;;;19.00;99.90;;;;;;5085160;28;20716;-36
2023/09/05 05:56:08;;;;;;;2.85;2.38;;;19.00;99.90;;;;;;5085172;28;20055;-35
2023/09/05 05:58:34;;;;;;;2.60;2.13;;;19.00;99.90;;;;;;5084691;28;20032;-36
2023/09/05 06:01:00;;;;;;;3.00;2.30;;;19.00;99.90;;;;;;5084727;28;20044;-35
2023/09/05 06:03:25;;;;;;;2.30;2.10;;;19.00;99.90;;;;;;5085135;28;20028;-34
2023/09/05 06:05:51;;;;;;;2.60;2.40;;;19.10;99.90;;;;;;5085034;28;20059;-35
2023/09/05 06:08:17;;;;;;;2.72;2.13;;;19.10;99.90;;;;;;5084785;28;20024;-35
2023/09/05 06:10:44;;;;;;;2.72;2.47;;;19.10;99.90;;;;;;5084975;28;20043;-36
2023/09/05 06:13:12;;;;;;;4.43;2.28;;;19.10;99.90;;;;;;5083968;28;20382;-35
2023/09/05 06:15:38;;;;;;;2.33;1.80;;;19.20;99.90;;;;;;5085383;28;20032;-35
2023/09/05 06:18:05;;;;;;;3.00;2.30;;;19.20;99.90;;;;;;5084465;28;20061;-35
2023/09/05 06:20:34;;;;;;;2.80;2.50;;;19.20;99.90;;;;;;5084972;28;20024;-35
2023/09/05 06:23:00;;;;;;;2.22;2.03;;;19.20;99.90;;;;;;5084636;28;20023;-36
2023/09/05 06:25:27;;;;;;;3.33;2.25;;;19.30;99.90;;;;;;5085192;28;20494;-36
2023/09/05 06:27:53;;;;;;;2.33;2.13;;;19.30;99.90;;;;;;5084747;28;20472;-35
2023/09/05 06:30:27;;;;;;;4.07;2.05;;;19.30;99.90;;;;;;5084470;28;20053;-35
2023/09/05 06:32:53;;;;;;;1.98;1.88;;;19.30;99.90;;;;;;5085227;28;20031;-35
2023/09/05 06:35:19;;;;;;;2.50;2.10;;;19.40;99.90;;;;;;5083364;28;20048;-36
2023/09/05 06:37:44;;;;;;;2.10;1.90;;;19.40;99.90;;;;;;5085366;28;20582;-35
2023/09/05 06:40:21;;;;;;;2.28;2.08;;;19.40;99.90;;;;;;5084594;28;20027;-36
2023/09/05 06:42:46;;;;;;;3.17;2.33;;;19.50;99.90;;;;;;5084654;28;20100;-36
2023/09/05 06:45:12;;;;;;;2.10;2.00;;;19.50;99.90;;;;;;5086524;28;20111;-34
2023/09/05 06:47:38;;;;;;;1.98;1.75;;;19.50;99.90;;;;;;5088500;28;20535;-35
2023/09/05 06:50:05;;;;;;;2.15;1.95;;;19.60;99.90;;;;;;5088198;28;20501;-35
2023/09/05 06:52:31;;;;;;;2.40;2.17;;;19.60;99.90;;;;;;5089081;28;20769;-35
2023/09/05 06:54:56;;;;;;;3.88;1.83;;;19.60;99.90;;;;;;5088281;28;20487;-35
2023/09/05 06:57:22;;;;;;;1.63;1.52;;;19.70;99.90;;;;;;5089163;28;20032;-35
2023/09/05 06:59:50;;;;;;;1.98;1.80;;;19.70;99.90;;;;;;5088707;28;20437;-35
2023/09/05 07:02:16;;;;;;;1.60;1.50;;;19.70;99.90;;;;;;5087785;28;20034;-34
2023/09/05 07:04:41;;;;;;;1.90;1.60;;;19.80;99.90;;;;;;5088808;28;20031;-35
2023/09/05 07:07:10;;;;;;;2.00;1.65;;;19.80;99.90;;;;;;5088153;28;20023;-36
2023/09/05 07:09:36;;;;;;;1.60;1.50;;;19.80;99.90;;;;;;5088202;28;20053;-34
2023/09/05 07:12:03;;;;;;;1.65;1.40;;;19.90;99.90;;;;;;5076795;28;20034;-35
2023/09/05 07:14:29;;;;;;;1.60;1.50;;;19.90;99.90;;;;;;5073231;28;20036;-36
2023/09/05 07:17:00;;;;;;;1.70;1.60;;;19.90;99.90;;;;;;5088338;28;20070;-36
2023/09/05 07:19:26;;;;;;;1.58;1.48;;;20.00;99.90;;;;;;5089128;28;20115;-36
2023/09/05 07:21:52;;;;;;;1.60;1.50;;;20.00;99.90;;;;;;5088588;28;20035;-36
2023/09/05 07:24:18;;;;;;;3.38;1.67;;;20.10;99.90;;;;;;5087211;28;20020;-36
2023/09/05 07:26:44;;;;;;;1.77;1.55;;;20.10;99.90;;;;;;5088789;28;20028;-35
2023/09/05 07:29:11;;;;;;;2.00;1.40;;;20.10;99.90;;;;;;5087859;28;20055;-36
2023/09/05 07:31:40;;;;;;;2.25;1.85;;;20.20;99.90;;;;;;5087598;28;20285;-35
2023/09/05 07:34:06;;;;;;;3.15;1.55;;;20.20;99.90;;;;;;5087582;28;20109;-35
2023/09/05 07:36:33;;;;;;;1.85;1.45;;;20.30;99.90;;;;;;5087362;28;20028;-35
2023/09/05 07:39:01;;;;;;;1.63;1.48;;;20.30;99.90;;;;;;5087370;28;20016;-36
2023/09/05 07:41:28;;;;;;;1.55;1.40;;;20.30;99.90;;;;;;5088402;28;20046;-35
2023/09/05 07:43:54;;;;;;;1.60;1.50;;;20.30;99.90;;;;;;5087444;28;20032;-35
2023/09/05 07:46:20;;;;;;;1.73;1.63;;;20.40;99.90;;;;;;5086477;28;20760;-36
2023/09/05 07:48:46;;;;;;;2.50;1.60;;;20.40;99.90;;;;;;5087792;28;20028;-37
2023/09/05 07:51:11;;;;;;;1.88;1.77;;;20.40;99.90;;;;;;5086362;28;20630;-35
2023/09/05 07:53:37;;;;;;;2.22;1.33;;;20.50;99.90;;;;;;5087990;28;20044;-36
2023/09/05 07:56:04;;;;;;;1.85;1.60;;;20.50;99.90;;;;;;5087160;28;20016;-36
2023/09/05 07:58:30;;;;;;;1.67;1.58;;;20.50;99.90;;;;;;5087444;28;20040;-36
2023/09/05 08:00:56;;;;;;;2.00;1.60;;;20.60;99.90;;;;;;5087142;28;20035;-35
2023/09/05 08:03:27;;;;;;;2.40;1.75;;;20.60;99.90;;;;;;5087707;28;20020;-34
2023/09/05 08:05:59;;;;;;;1.67;1.58;;;20.60;99.90;;;;;;5087039;28;20383;-36
2023/09/05 08:08:28;;;;;;;3.10;1.40;;;20.70;99.90;;;;;;5085010;28;20028;-35
2023/09/05 08:10:53;;;;;;;3.03;1.40;;;20.70;99.90;;;;;;5087771;28;20063;-35
2023/09/05 08:13:19;;;;;;;1.55;1.45;;;20.80;99.90;;;;;;5086077;28;20805;-36
2023/09/05 08:15:46;;;;;;;2.05;1.50;;;20.80;99.90;;;;;;5088442;28;20020;-36
2023/09/05 08:18:12;;;;;;;1.38;1.27;;;20.90;99.90;;;;;;5086905;28;20028;-36
2023/09/05 08:20:39;;;;;;;2.38;1.60;;;20.90;99.90;;;;;;5086999;28;20043;-36
2023/09/05 08:23:08;;;;;;;1.55;1.45;;;21.00;99.90;;;;;;5086578;28;20024;-35
2023/09/05 08:25:33;;;;;;;1.77;1.30;;;21.00;99.90;;;;;;5087491;28;20020;-35
2023/09/05 08:28:00;;;;;;;1.55;1.45;;;21.10;99.90;;;;;;5086275;28;20081;-36
2023/09/05 08:30:28;;;;;;;1.70;1.60;;;21.10;99.90;;;;;;5086951;28;20360;-36
2023/09/05 08:33:01;;;;;;;2.22;1.45;;;21.20;99.90;;;;;;5086971;28;20810;-36
2023/09/05 08:35:27;;;;;;;2.05;1.50;;;21.20;99.90;;;;;;5087129;28;20067;-35
2023/09/05 08:37:52;;;;;;;1.50;1.40;;;21.30;99.90;;;;;;5086849;28;20082;-35
2023/09/05 08:40:19;;;;;;;2.15;1.58;;;21.40;99.90;;;;;;5086381;28;20085;-36
2023/09/05 08:42:49;;;;;;;2.30;1.27;;;21.40;99.90;;;;;;5087221;28;20020;-36
2023/09/05 08:45:22;;;;;;;1.83;1.67;;;21.40;99.90;;;;;;5085469;28;20035;-36
2023/09/05 08:47:48;;;;;;;2.17;1.50;;;21.50;99.90;;;;;;5086100;28;20020;-36
2023/09/05 08:50:14;;;;;;;1.50;1.40;;;21.50;99.90;;;;;;5085955;28;20020;-35
2023/09/05 08:52:45;;;;;;;1.90;1.50;;;21.60;99.90;;;;;;5086425;28;20715;-35
2023/09/05 08:55:13;;;;;;;4.82;1.70;;;21.60;99.90;;;;;;5085170;28;20114;-36
2023/09/05 08:57:43;;;;;;;2.83;1.50;;;21.70;99.90;;;;;;5085949;28;20028;-35
2023/09/05 09:00:09;;;;;;;1.67;1.58;;;21.70;99.90;;;;;;5086297;28;20127;-35
2023/09/05 09:02:35;;;;;;;1.60;1.50;;;21.70;99.90;;;;;;5086171;28;20046;-35
2023/09/05 09:05:01;;;;;;;1.50;1.40;;;21.80;99.90;;;;;;5085894;28;20024;-34
2023/09/05 09:07:27;;;;;;;2.50;1.50;;;21.80;99.90;;;;;;5086094;28;20031;-35
2023/09/05 09:09:54;;;;;;;1.95;1.63;;;21.90;99.90;;;;;;5085265;28;20045;-35
2023/09/05 09:12:31;;;;;;;1.80;1.52;;;21.90;99.90;;;;;;5086063;28;20111;-36
2023/09/05 09:15:13;;;;;;;2.05;1.85;;;22.00;99.90;;;;;;5085433;28;20028;-36
2023/09/05 09:17:50;;;;;;;1.87;1.23;;;22.00;99.90;;;;;;5086212;28;20562;-36
2023/09/05 09:20:19;;;;;;;1.52;1.42;;;22.00;99.90;;;;;;5085731;28;20270;-34
2023/09/05 09:22:47;;;;;;;2.50;1.38;;;22.10;99.90;;;;;;5086042;28;20036;-36
2023/09/05 09:25:15;;;;;;;1.85;1.25;;;22.10;99.90;;;;;;5085818;28;20038;-35
2023/09/05 09:27:44;;;;;;;1.77;1.48;;;22.10;99.90;;;;;;5087358;28;20036;-35
2023/09/05 09:30:10;;;;;;;1.98;1.38;;;22.20;99.90;;;;;;5085020;28;20059;-35
2023/09/05 09:32:37;;;;;;;1.55;1.10;;;22.20;99.90;;;;;;5086192;28;20768;-35
2023/09/05 09:35:06;;;;;;;2.15;1.20;;;22.30;99.90;;;;;;5085629;28;20256;-36
2023/09/05 09:37:36;;;;;;;1.70;1.50;;;22.30;99.90;;;;;;5084748;28;20031;-36
2023/09/05 09:40:07;;;;;;;2.33;1.40;;;22.40;99.90;;;;;;5085063;28;20370;-35
2023/09/05 09:42:34;;;;;;;1.65;1.30;;;22.40;99.90;;;;;;5086316;28;20020;-36
2023/09/05 09:45:00;;;;;;;2.25;1.40;;;22.50;99.90;;;;;;5085423;28;20028;-36
2023/09/05 09:47:28;;;;;;;2.00;1.52;;;22.50;99.90;;;;;;5085745;28;20023;-36
2023/09/05 09:49:53;;;;;;;1.45;1.35;;;22.60;99.90;;;;;;5085726;28;20438;-36
2023/09/05 09:52:21;;;;;;;1.45;1.30;;;22.60;99.90;;;;;;5084471;28;20627;-36
2023/09/05 09:54:51;;;;;;;1.60;1.35;;;22.70;99.90;;;;;;5085864;28;20032;-37
2023/09/05 09:57:44;;;;;;;1.60;1.50;;;22.80;99.90;;;;;;5085325;28;20031;-36
2023/09/05 10:00:15;;;;;;;1.73;1.20;;;22.80;99.90;;;;;;5080936;28;20094;-36
2023/09/05 10:02:45;;;;;;;1.95;1.25;;;22.90;99.90;;;;;;5085750;28;20569;-34
2023/09/05 10:05:15;;;;;;;2.75;1.70;;;23.00;99.90;;;;;;5084479;28;20135;-36
2023/09/05 10:07:42;;;;;;;3.10;1.40;;;23.10;99.90;;;;;;5085759;28;20043;-36
2023/09/05 10:10:18;;;;;;;2.15;1.20;;;23.10;99.90;;;;;;5084467;28;20475;-36
2023/09/05 10:12:45;;;;;;;1.98;1.30;;;23.10;99.90;;;;;;5084745;28;20035;-36
2023/09/05 10:15:15;;;;;;;1.35;1.25;;;23.20;99.90;;;;;;5084706;28;20119;-37
2023/09/05 10:17:45;;;;;;;1.75;1.23;;;23.30;99.90;;;;;;5085609;28;20032;-37
2023/09/05 10:20:25;;;;;;;1.23;1.13;;;23.40;99.90;;;;;;5084340;28;20031;-36
2023/09/05 10:22:53;;;;;;;1.40;1.30;;;23.50;99.90;;;;;;5085924;28;20020;-36
2023/09/05 10:25:20;;;;;;;2.10;1.42;;;23.60;99.90;;;;;;5084809;28;20023;-37
2023/09/05 10:27:45;;;;;;;1.50;1.10;;;23.80;99.90;;;;;;5083967;28;20378;-36
2023/09/05 10:30:11;;;;;;;1.30;1.20;;;23.80;99.90;;;;;;5084020;28;20471;-38
2023/09/05 10:32:47;;;;;;;2.45;1.10;;;23.90;99.90;;;;;;5084976;28;20028;-37
2023/09/05 10:35:20;;;;;;;1.27;1.17;;;23.90;99.90;;;;;;5084586;28;20044;-35
2023/09/05 10:38:04;;;;;;;1.13;1.10;;;24.00;99.90;;;;;;5084743;28;20028;-37
2023/09/05 10:40:39;;;;;;;1.25;1.10;;;24.00;99.90;;;;;;5083589;28;20384;-35
2023/09/05 10:43:15;;;;;;;0.85;0.85;;;24.00;99.90;;;;;;5084275;28;20028;-36
2023/09/05 10:45:41;;;;;;;1.27;1.17;;;24.00;99.90;;;;;;5085568;28;20119;-36
2023/09/05 10:48:32;;;;;;;1.20;1.00;;;24.00;99.90;;;;;;5082869;28;20115;-37
2023/09/05 10:51:13;;;;;;;1.15;1.05;;;24.10;99.90;;;;;;5082784;28;20062;-35
2023/09/05 10:53:45;;;;;;;1.17;0.90;;;24.10;99.90;;;;;;5082675;28;20547;-36
2023/09/05 10:56:43;;;;;;;0.90;0.90;;;24.20;99.90;;;;;;5083200;28;20111;-37
2023/09/05 10:59:32;;;;;;;1.45;1.00;;;24.20;99.90;;;;;;5081380;28;20028;-36
2023/09/05 11:02:00;;;;;;;1.20;1.10;;;24.20;99.90;;;;;;5083895;28;20047;-36
2023/09/05 11:04:29;;;;;;;1.20;1.10;;;24.20;99.90;;;;;;5085150;28;20036;-37
2023/09/05 11:07:00;;;;;;;1.20;1.10;;;24.30;99.90;;;;;;5084748;28;20028;-36
2023/09/05 11:09:25;;;;;;;1.45;1.17;;;24.30;99.90;;;;;;5084028;28;20024;-36
2023/09/05 11:11:52;;;;;;;1.42;1.10;;;24.30;99.90;;;;;;5084954;28;20032;-36
2023/09/05 11:14:32;;;;;;;1.17;1.08;;;24.30;99.90;;;;;;5083165;28;20116;-36
2023/09/05 11:17:01;;;;;;;1.23;1.00;;;24.40;99.90;;;;;;5085151;28;20032;-36
2023/09/05 11:19:42;;;;;;;0.95;0.93;;;24.50;99.90;;;;;;5085520;28;20036;-36
2023/09/05 11:22:12;;;;;;;1.27;1.00;;;24.50;99.90;;;;;;5083756;28;20029;-36
2023/09/05 11:24:46;;;;;;;1.70;1.00;;;24.60;99.90;;;;;;5084537;28;20031;-36
2023/09/05 11:27:13;;;;;;;1.50;1.13;;;24.60;99.90;;;;;;5084450;28;20031;-38
2023/09/05 11:29:39;;;;;;;1.15;1.00;;;24.70;99.90;;;;;;5083630;28;20468;-35
2023/09/05 11:32:06;;;;;;;1.30;1.20;;;24.90;99.90;;;;;;5087041;28;20038;-38
2023/09/05 11:34:33;;;;;;;1.40;1.30;;;25.00;99.90;;;;;;5088291;28;20049;-36
2023/09/05 11:37:02;;;;;;;1.30;1.20;;;25.10;99.90;;;;;;5087863;28;20017;-35
2023/09/05 11:39:34;;;;;;;1.40;1.20;;;25.20;99.90;;;;;;5088329;28;20067;-34
2023/09/05 11:42:02;;;;;;;1.20;1.10;;;25.20;99.90;;;;;;5087452;28;20023;-35
2023/09/05 11:44:32;;;;;;;0.90;0.90;;;25.30;99.90;;;;;;5087809;28;20114;-35
2023/09/05 11:46:59;;;;;;;1.05;1.00;;;25.40;99.90;;;;;;5088188;28;20081;-35
2023/09/05 11:49:25;;;;;;;1.25;1.15;;;25.40;99.90;;;;;;5087791;28;20055;-36
2023/09/05 11:51:50;;;;;;;1.38;1.20;;;25.50;99.90;;;;;;5087021;28;20095;-36
2023/09/05 11:54:16;;;;;;;1.58;1.20;;;25.60;99.90;;;;;;5086893;28;20035;-35
2023/09/05 11:56:42;;;;;;;1.20;1.10;;;25.70;99.90;;;;;;5087716;28;20020;-35
2023/09/05 11:59:07;;;;;;;1.13;1.02;;;25.70;99.90;;;;;;5086259;28;20106;-36
2023/09/05 12:01:33;;;;;;;1.35;1.20;;;25.70;99.90;;;;;;5087789;28;20044;-37
2023/09/05 12:04:05;;;;;;;2.17;1.15;;;25.70;99.90;;;;;;5086679;28;20024;-35
2023/09/05 12:06:37;;;;;;;;;;;25.80;99.90;;;;;;5087926;28;20020;-36
2023/09/05 12:09:03;;;;;;;1.38;1.27;;;25.90;99.90;;;;;;5085699;28;19904;-35
2023/09/05 12:11:29;;;;;;;0.95;0.93;;;26.00;99.90;;;;;;5085177;28;20410;-36
2023/09/05 12:13:58;;;;;;;1.30;1.20;;;26.10;99.90;;;;;;5087335;28;20039;-36
2023/09/05 12:16:28;;;;;;;1.67;1.30;;;26.20;99.90;;;;;;5086849;28;20143;-35
2023/09/05 12:19:01;;;;;;;1.35;1.10;;;26.20;99.90;;;;;;5087090;28;20085;-36
2023/09/05 12:21:47;;;;;;;1.17;1.08;;;26.20;99.90;;;;;;5087250;28;20036;-35
2023/09/05 12:24:20;;;;;;;2.03;1.02;;;26.20;99.90;;;;;;5086908;28;20039;-36
2023/09/05 12:26:59;;;;;;;0.95;0.82;;;26.20;99.90;;;;;;5086800;28;20024;-37
2023/09/05 12:29:41;;;;;;;1.30;1.20;;;26.10;99.90;;;;;;5087123;28;20032;-35
2023/09/05 12:32:07;;;;;;;1.20;1.10;;;26.10;99.90;;;;;;5085854;28;20049;-36
2023/09/05 12:34:36;;;;;;;1.20;1.02;;;26.00;99.90;;;;;;5087284;28;20400;-37
2023/09/05 12:37:01;;;;;;;1.33;0.98;;;26.10;99.90;;;;;;5086135;28;20068;-36
2023/09/05 12:39:27;;;;;;;1.25;1.15;;;26.10;99.90;;;;;;5086867;28;20024;-36
2023/09/05 12:41:52;;;;;;;1.05;1.00;;;26.10;99.90;;;;;;5085724;28;20024;-35
2023/09/05 12:44:18;;;;;;;2.28;1.20;;;26.10;99.90;;;;;;5086483;28;20035;-34
2023/09/05 12:46:43;;;;;;;1.10;1.00;;;26.20;99.90;;;;;;5086260;28;20054;-35
2023/09/05 12:49:12;;;;;;;1.58;1.30;;;26.30;99.90;;;;;;5086857;28;20028;-36
2023/09/05 12:51:38;;;;;;;1.08;0.98;;;26.40;99.90;;;;;;5087230;28;20024;-35